Time;durP1;ratioP1;P1;durP2;ratioP2;P2;SDS_P1;SDS_P2;PMS_P1;PMS_P2;Temp;Humidity;BMP_temperature;BMP_pressure;BME280_temperature;BME280_humidity;BME280_pressure;Samples;Min_cycle;Max_cycle;Signal;HPM_P1;HPM_P2
2023/09/09 00:00:50;;;;;;;;;19.25;19.25;;;;;27.70;51.82;101028.03;4969812;28;47264;-72
2023/09/09 00:03:15;;;;;;;;;18.00;17.50;;;;;27.80;52.02;101044.38;4972345;28;45671;-72
2023/09/09 00:05:41;;;;;;;;;18.50;17.50;;;;;27.90;52.28;101067.16;4977516;28;45461;-72
2023/09/09 00:08:06;;;;;;;;;12.25;11.50;;;;;27.73;51.43;101042.28;4979796;28;45426;-72
2023/09/09 00:10:36;;;;;;;;;19.50;17.25;;;;;27.79;51.97;101053.66;4977795;28;49591;-72
2023/09/09 00:13:05;;;;;;;;;13.75;12.00;;;;;27.79;52.40;101060.00;4976969;28;45573;-72
2023/09/09 00:15:32;;;;;;;;;16.75;15.00;;;;;27.87;51.90;101071.06;4978163;28;45502;-72
2023/09/09 00:17:58;;;;;;;;;16.25;14.50;;;;;27.86;52.13;101074.81;4978835;28;45541;-72
2023/09/09 00:20:32;;;;;;;;;17.25;16.75;;;;;27.85;51.50;101077.69;4976951;28;46400;-72
2023/09/09 00:22:57;;;;;;;;;18.00;15.50;;;;;27.63;52.38;101044.22;4978740;28;45527;-72
2023/09/09 00:25:23;;;;;;;;;15.25;15.25;;;;;27.83;52.29;101077.00;4978378;28;45310;-72
2023/09/09 00:27:48;;;;;;;;;17.25;16.25;;;;;27.60;52.56;101036.31;4978824;28;45233;-72
2023/09/09 00:30:13;;;;;;;;;20.00;18.75;;;;;27.61;52.60;101042.66;4975803;28;45466;-72
2023/09/09 00:32:39;;;;;;;;;14.50;14.50;;;;;27.60;52.38;101041.78;4975458;28;45389;-72
2023/09/09 00:35:04;;;;;;;;;19.00;17.25;;;;;27.79;52.69;101070.13;4965685;28;45555;-72
2023/09/09 00:37:30;;;;;;;;;20.25;20.00;;;;;27.78;52.71;101069.22;4975105;28;46059;-72
2023/09/09 00:39:55;;;;;;;;;17.50;17.50;;;;;27.75;52.65;101066.81;4977056;28;45487;-72
2023/09/09 00:42:21;;;;;;;;;17.00;15.75;;;;;27.62;52.46;101036.16;4974453;28;45959;-72
2023/09/09 00:44:46;;;;;;;;;20.00;18.75;;;;;27.62;53.26;101044.38;4976209;28;45450;-72
2023/09/09 00:47:11;;;;;;;;;21.50;19.75;;;;;27.66;53.27;101063.09;4976901;28;45307;-72
2023/09/09 00:49:37;;;;;;;;;17.25;15.75;;;;;27.52;52.66;101033.47;4976160;28;46638;-71
2023/09/09 00:52:02;;;;;;;;;17.00;17.00;;;;;27.45;53.20;101027.75;4973772;28;45539;-72
2023/09/09 00:54:28;;;;;;;;;22.25;20.00;;;;;27.62;53.62;101056.22;4972588;28;45536;-72
2023/09/09 00:56:58;;;;;;;;;20.50;19.00;;;;;27.53;53.65;101048.88;4971933;28;45764;-72
2023/09/09 00:59:24;;;;;;;;;18.25;15.50;;;;;27.46;53.40;101042.31;4974192;28;48097;-72
2023/09/09 01:01:49;;;;;;;;;23.00;18.75;;;;;27.50;53.78;101055.56;4978205;28;46480;-72
2023/09/09 01:04:15;;;;;;;;;18.50;17.50;;;;;27.34;53.39;101034.28;4977385;28;45320;-72
2023/09/09 01:06:41;;;;;;;;;20.75;19.75;;;;;27.47;53.68;101052.25;4975757;28;45316;-72
2023/09/09 01:09:08;;;;;;;;;20.50;19.75;;;;;27.40;54.00;101048.38;4976223;28;46796;-72
2023/09/09 01:11:34;;;;;;;;;20.75;20.75;;;;;27.29;53.99;101038.50;4976074;28;45609;-72
2023/09/09 01:13:59;;;;;;;;;20.50;19.75;;;;;27.19;54.05;101024.81;4963838;28;45415;-73
2023/09/09 01:16:26;;;;;;;;;24.25;22.75;;;;;27.34;54.15;101063.56;4976659;28;45418;-72
2023/09/09 01:18:51;;;;;;;;;21.25;19.50;;;;;27.26;54.74;101045.09;4971367;28;46508;-72
2023/09/09 01:21:19;;;;;;;;;21.75;21.75;;;;;27.25;54.74;101043.38;4977054;28;45412;-72
2023/09/09 01:23:45;;;;;;;;;22.50;21.00;;;;;27.30;54.63;101057.53;4976434;28;45514;-72
2023/09/09 01:26:10;;;;;;;;;18.25;18.25;;;;;27.30;54.91;101056.69;4977189;28;45438;-72
2023/09/09 01:28:36;;;;;;;;;19.50;18.50;;;;;27.21;54.92;101046.56;4974931;28;45446;-72
2023/09/09 01:31:02;;;;;;;;;21.75;20.25;;;;;27.12;55.26;101031.91;4977050;28;45482;-72
2023/09/09 01:33:27;;;;;;;;;19.00;18.25;;;;;27.28;54.96;101069.63;4969813;28;45693;-72
2023/09/09 01:35:52;;;;;;;;;20.00;18.75;;;;;27.10;55.36;101032.06;4977770;28;45408;-72
2023/09/09 01:38:18;;;;;;;;;19.00;19.00;;;;;27.19;55.64;101049.47;4977266;28;45643;-72
2023/09/09 01:40:43;;;;;;;;;18.25;17.75;;;;;27.07;55.47;101032.34;4976156;28;45515;-72
2023/09/09 01:43:08;;;;;;;;;18.50;18.50;;;;;27.18;55.18;101059.56;4968265;28;45537;-72
2023/09/09 01:45:34;;;;;;;;;17.50;17.50;;;;;27.20;55.69;101073.13;4972970;28;45555;-72
2023/09/09 01:47:59;;;;;;;;;18.50;17.50;;;;;26.97;55.30;101035.13;4975588;28;45812;-72
2023/09/09 01:50:25;;;;;;;;;19.00;16.75;;;;;27.12;55.76;101062.91;4967627;28;45694;-72
2023/09/09 01:52:50;;;;;;;;;17.75;17.75;;;;;26.88;55.67;101027.81;4975487;28;45668;-72
2023/09/09 01:55:15;;;;;;;;;18.75;17.00;;;;;26.93;55.56;101038.31;4973004;28;45512;-72
2023/09/09 01:57:40;;;;;;;;;21.25;20.25;;;;;27.10;55.63;101064.09;4975440;28;45491;-72
2023/09/09 02:00:07;;;;;;;;;16.75;16.25;;;;;26.93;55.87;101044.66;4977574;28;46390;-72
2023/09/09 02:02:33;;;;;;;;;19.50;18.25;;;;;27.01;55.45;101059.50;4978468;28;45689;-72
2023/09/09 02:04:58;;;;;;;;;18.50;17.00;;;;;26.78;56.06;101021.47;4973634;28;45596;-72
2023/09/09 02:07:23;;;;;;;;;23.25;20.25;;;;;26.91;55.63;101048.56;4980178;28;45588;-72
2023/09/09 02:09:49;;;;;;;;;21.00;19.50;;;;;26.97;56.44;101065.25;4971022;28;45465;-72
2023/09/09 02:12:14;;;;;;;;;21.75;19.25;;;;;26.78;56.15;101026.97;4980795;28;45443;-72
2023/09/09 02:14:40;;;;;;;;;19.25;19.25;;;;;26.85;56.18;101047.28;4977040;28;45530;-72
2023/09/09 02:17:06;;;;;;;;;22.00;20.00;;;;;26.79;56.29;101037.78;4977920;28;47125;-72
2023/09/09 02:19:31;;;;;;;;;17.75;17.50;;;;;26.82;55.96;101046.72;4979640;28;45649;-71
2023/09/09 02:21:57;;;;;;;;;18.25;18.25;;;;;26.84;56.66;101053.75;4977700;28;45542;-72
2023/09/09 02:24:22;;;;;;;;;16.75;15.75;;;;;26.89;56.20;101064.28;4979204;28;45629;-72
2023/09/09 02:26:48;;;;;;;;;20.50;20.25;;;;;26.76;56.48;101049.06;4979066;28;46215;-72
2023/09/09 02:29:13;;;;;;;;;18.00;18.00;;;;;26.64;56.66;101024.72;4973166;28;45763;-72
2023/09/09 02:31:38;;;;;;;;;17.75;17.25;;;;;26.78;56.72;101054.34;4973462;28;45362;-72
2023/09/09 02:34:04;;;;;;;;;21.00;20.50;;;;;26.70;56.77;101030.47;4972985;28;45449;-72
2023/09/09 02:36:29;;;;;;;;;20.75;19.50;;;;;26.62;56.78;101022.09;4974564;28;46829;-72
2023/09/09 02:38:54;;;;;;;;;21.50;20.00;;;;;26.61;57.03;101021.22;4974776;28;45610;-72
2023/09/09 02:41:20;;;;;;;;;9.25;6.75;;;;;26.74;56.95;101047.44;4979253;28;45682;-72
2023/09/09 02:43:45;;;;;;;;;20.00;19.25;;;;;26.61;56.92;101032.19;4975774;28;45622;-72
2023/09/09 02:46:11;;;;;;;;;18.75;18.00;;;;;26.69;57.20;101042.41;4977589;28;47094;-72
2023/09/09 02:48:36;;;;;;;;;19.00;19.00;;;;;26.61;57.03;101031.31;4975300;28;45940;-72
2023/09/09 02:51:01;;;;;;;;;19.50;19.00;;;;;26.58;57.35;101034.31;4978782;28;45389;-71
2023/09/09 02:53:27;;;;;;;;;22.00;18.50;;;;;26.68;57.14;101042.56;4991400;28;45693;-72
2023/09/09 02:55:52;;;;;;;;;20.25;20.25;;;;;26.52;57.26;101027.56;4987684;28;47172;-72
2023/09/09 02:58:17;;;;;;;;;20.25;19.25;;;;;26.41;57.31;101006.72;4976011;28;45813;-72
2023/09/09 03:00:43;;;;;;;;;15.25;12.50;;;;;26.67;57.36;101054.53;4973956;28;45615;-72
2023/09/09 03:03:08;;;;;;;;;17.25;17.25;;;;;26.48;57.50;101042.59;4977405;28;45492;-71
2023/09/09 03:05:35;;;;;;;;;16.00;14.75;;;;;26.60;57.86;101046.03;4969679;28;45357;-72
2023/09/09 03:08:02;;;;;;;;;19.00;18.75;;;;;26.56;57.33;101039.97;4974540;28;45799;-72
2023/09/09 03:10:27;;;;;;;;;18.00;16.75;;;;;26.44;57.97;101022.81;4974251;28;45458;-72
2023/09/09 03:12:52;;;;;;;;;22.00;21.00;;;;;26.58;57.79;101046.16;4979425;28;45317;-72
2023/09/09 03:15:18;;;;;;;;;17.25;15.50;;;;;26.37;57.96;101018.09;4972463;28;47996;-72
2023/09/09 03:17:43;;;;;;;;;20.25;17.50;;;;;26.50;57.97;101045.19;4979374;28;45655;-72
2023/09/09 03:20:09;;;;;;;;;22.50;19.50;;;;;26.38;58.11;101030.75;4978869;28;45666;-72
2023/09/09 03:22:35;;;;;;;;;21.75;20.25;;;;;26.44;58.30;101052.94;4976733;28;45526;-72
2023/09/09 03:25:00;;;;;;;;;18.50;18.00;;;;;26.42;58.27;101048.63;4977965;28;46020;-72
2023/09/09 03:27:26;;;;;;;;;20.50;18.50;;;;;26.44;58.41;101050.19;4976096;28;45473;-72
2023/09/09 03:29:51;;;;;;;;;21.50;19.25;;;;;26.27;58.21;101028.19;4979754;28;45956;-72
2023/09/09 03:32:16;;;;;;;;;23.00;20.25;;;;;26.35;58.65;101042.88;4976657;28;45600;-72
2023/09/09 03:34:43;;;;;;;;;19.75;19.75;;;;;26.27;59.05;101026.31;4974469;28;46847;-72
2023/09/09 03:37:08;;;;;;;;;16.50;16.00;;;;;26.31;58.55;101032.34;4974031;28;46214;-72
2023/09/09 03:39:34;;;;;;;;;21.00;19.25;;;;;26.21;58.57;101018.69;4974781;28;45464;-72
2023/09/09 03:41:59;;;;;;;;;20.25;19.75;;;;;26.35;58.50;101048.34;4977301;28;45498;-72
2023/09/09 03:44:24;;;;;;;;;16.25;15.75;;;;;26.27;58.62;101030.94;4968192;28;47045;-72
2023/09/09 03:46:50;;;;;;;;;20.25;18.75;;;;;26.15;58.20;101016.53;4973370;28;45730;-72
2023/09/09 03:49:15;;;;;;;;;23.25;20.25;;;;;26.13;58.58;101011.22;4978545;28;45346;-72
2023/09/09 03:51:40;;;;;;;;;12.25;11.50;;;;;26.22;58.79;101036.84;4977279;28;45399;-72
2023/09/09 03:54:06;;;;;;;;;19.00;17.00;;;;;26.20;58.62;101041.59;4975817;28;45959;-72
2023/09/09 03:56:31;;;;;;;;;19.50;18.00;;;;;26.30;59.02;101055.28;4975415;28;45305;-71
2023/09/09 03:58:57;;;;;;;;;22.25;20.25;;;;;26.13;58.79;101024.91;4974557;28;45620;-72
2023/09/09 04:01:22;;;;;;;;;19.75;19.75;;;;;26.14;58.86;101020.28;4973786;28;45965;-72
2023/09/09 04:03:48;;;;;;;;;22.75;20.00;;;;;26.19;58.64;101039.84;4971685;28;50317;-72
2023/09/09 04:06:13;;;;;;;;;19.00;17.25;;;;;26.22;58.95;101039.56;4975959;28;45919;-72
2023/09/09 04:08:40;;;;;;;;;17.75;17.50;;;;;26.26;59.16;101051.94;4976890;28;45477;-72
2023/09/09 04:11:05;;;;;;;;;20.25;19.25;;;;;26.02;59.09;101014.94;4976395;28;45867;-71
2023/09/09 04:13:31;;;;;;;;;18.75;18.25;;;;;26.02;59.16;101011.34;4973961;28;46257;-72
2023/09/09 04:15:58;;;;;;;;;20.25;18.25;;;;;26.10;59.37;101033.38;4978518;28;45454;-72
2023/09/09 04:18:24;;;;;;;;;21.00;19.25;;;;;26.03;59.44;101019.41;4974392;28;45543;-71
2023/09/09 04:20:50;;;;;;;;;23.25;22.25;;;;;26.16;59.16;101048.34;4976325;28;45522;-71
2023/09/09 04:23:16;;;;;;;;;19.50;18.00;;;;;26.07;59.14;101030.94;4973084;28;48283;-72
2023/09/09 04:25:43;;;;;;;;;20.75;20.75;;;;;26.03;59.23;101035.81;4975079;28;45341;-72
2023/09/09 04:28:11;;;;;;;;;22.75;19.00;;;;;25.95;59.21;101022.00;4975521;28;45602;-71
2023/09/09 04:30:40;;;;;;;;;20.25;18.25;;;;;26.04;59.25;101048.50;4976172;28;45487;-72
2023/09/09 04:33:11;;;;;;;;;19.25;18.75;;;;;25.97;59.71;101036.38;4968644;28;47344;-72
2023/09/09 04:35:37;;;;;;;;;18.50;18.25;;;;;25.99;59.69;101039.84;4971716;28;45869;-72
2023/09/09 04:38:03;;;;;;;;;21.00;20.50;;;;;26.01;59.90;101042.44;4975912;28;45423;-72
2023/09/09 04:40:28;;;;;;;;;21.75;18.75;;;;;26.10;59.75;101059.88;4977792;28;45624;-72
2023/09/09 04:42:53;;;;;;;;;21.50;19.25;;;;;25.99;59.57;101053.50;4978251;28;45364;-71
2023/09/09 04:45:19;;;;;;;;;19.00;18.50;;;;;25.81;60.17;101030.56;4976688;28;45467;-72
2023/09/09 04:47:44;;;;;;;;;23.00;23.00;;;;;25.96;59.43;101062.03;4981728;28;45503;-72
2023/09/09 04:50:10;;;;;;;;;22.75;21.75;;;;;25.76;59.93;101017.34;4968931;28;45437;-72
2023/09/09 04:52:35;;;;;;;;;23.00;19.75;;;;;25.99;60.26;101067.19;4972791;28;46671;-72
2023/09/09 04:55:00;;;;;;;;;22.50;21.50;;;;;25.76;60.19;101031.03;4975308;28;46186;-72
2023/09/09 04:57:26;;;;;;;;;21.00;19.00;;;;;25.85;60.08;101048.44;4977211;28;45361;-72
2023/09/09 04:59:51;;;;;;;;;18.50;18.25;;;;;25.74;59.74;101033.00;4975308;28;45426;-72
2023/09/09 05:02:16;;;;;;;;;18.75;18.75;;;;;25.78;59.99;101037.22;4976656;28;46546;-71
2023/09/09 05:04:42;;;;;;;;;17.50;16.75;;;;;25.96;60.38;101063.88;4971716;28;51220;-72
2023/09/09 05:07:09;;;;;;;;;17.25;17.25;;;;;25.95;60.33;101062.13;4974633;28;45309;-72
2023/09/09 05:09:35;;;;;;;;;17.75;16.75;;;;;25.83;60.12;101048.59;4973223;28;45603;-72
2023/09/09 05:12:00;;;;;;;;;20.75;19.25;;;;;25.79;60.12;101046.28;4972775;28;47020;-72
2023/09/09 05:14:26;;;;;;;;;19.50;18.75;;;;;25.92;60.51;101065.16;4973248;28;45339;-72
2023/09/09 05:16:51;;;;;;;;;21.50;18.75;;;;;25.88;60.01;101059.09;4968927;28;45439;-72
2023/09/09 05:19:16;;;;;;;;;22.75;20.75;;;;;25.74;60.51;101035.75;4976119;28;45809;-72
2023/09/09 05:21:42;;;;;;;;;15.00;14.75;;;;;25.71;60.18;101038.78;4976286;28;45518;-72
2023/09/09 05:24:07;;;;;;;;;20.25;18.00;;;;;25.84;60.42;101055.78;4972426;28;45649;-72
2023/09/09 05:26:32;;;;;;;;;22.00;19.00;;;;;25.83;60.65;101059.53;4991057;28;45574;-72
2023/09/09 05:29:00;;;;;;;;;18.75;17.75;;;;;25.74;60.59;101046.69;4976499;28;45439;-71
2023/09/09 05:31:25;;;;;;;;;19.00;19.00;;;;;25.68;60.34;101039.94;4975288;28;46058;-72
2023/09/09 05:33:50;;;;;;;;;20.75;19.25;;;;;25.81;60.80;101067.00;4976054;28;45621;-71
2023/09/09 05:36:16;;;;;;;;;17.75;17.75;;;;;25.78;60.62;101053.63;4972916;28;45598;-72
2023/09/09 05:38:41;;;;;;;;;22.75;19.00;;;;;25.70;60.69;101046.09;4977480;28;45478;-72
2023/09/09 05:41:06;;;;;;;;;22.25;21.75;;;;;25.74;60.42;101048.56;4978313;28;46130;-72
2023/09/09 05:43:32;;;;;;;;;20.25;20.00;;;;;25.73;60.70;101058.66;4978222;28;45771;-72
2023/09/09 05:45:59;;;;;;;;;19.25;18.75;;;;;25.86;60.84;101080.22;4978765;28;45372;-72
2023/09/09 05:48:25;;;;;;;;;20.00;19.00;;;;;25.84;60.29;101077.66;4971353;28;45494;-72
2023/09/09 05:50:51;;;;;;;;;19.25;18.75;;;;;25.90;60.66;101087.16;4976135;28;48057;-72
2023/09/09 05:53:16;;;;;;;;;19.00;19.00;;;;;25.75;60.23;101059.38;4974722;28;45484;-72
2023/09/09 05:55:41;;;;;;;;;19.00;17.50;;;;;25.89;59.82;101085.44;4978523;28;45452;-73
2023/09/09 05:58:07;;;;;;;;;18.25;18.00;;;;;25.70;60.19;101053.47;4978313;28;45825;-72
2023/09/09 06:00:32;;;;;;;;;22.00;19.00;;;;;25.80;60.33;101070.75;4977429;28;47209;-72
2023/09/09 06:02:57;;;;;;;;;20.50;19.50;;;;;25.76;59.99;101068.41;4979085;28;45533;-72
2023/09/09 06:05:23;;;;;;;;;22.00;19.75;;;;;25.95;59.89;101100.44;4979300;28;45438;-72
2023/09/09 06:07:48;;;;;;;;;19.50;16.75;;;;;25.79;59.97;101070.88;4974386;28;45296;-72
2023/09/09 06:10:14;;;;;;;;;18.75;16.50;;;;;25.95;60.49;101098.59;4977277;28;45403;-72
2023/09/09 06:23:44;;;;;;;;;15.75;14.25;;;;;25.98;59.99;101100.19;4977155;22;46805;-85
2023/09/09 06:26:10;;;;;;;;;18.25;15.25;;;;;25.92;59.62;101092.50;4964754;28;45427;-85
2023/09/09 06:28:35;;;;;;;;;14.75;14.50;;;;;25.90;59.73;101092.63;4978509;28;45334;-85
2023/09/09 06:31:00;;;;;;;;;16.75;16.50;;;;;25.97;59.72;101115.72;4972563;28;45378;-85
2023/09/09 06:33:26;;;;;;;;;11.50;11.50;;;;;25.88;59.33;101103.72;4975572;28;46483;-85
2023/09/09 06:35:52;;;;;;;;;13.00;12.00;;;;;25.97;60.10;101118.44;4977720;28;45327;-86
2023/09/09 06:38:17;;;;;;;;;15.50;14.00;;;;;25.87;59.51;101098.38;4977943;28;45349;-85
2023/09/09 07:12:25;;;;;;;;;11.50;10.00;;;;;25.54;58.67;101053.97;4979656;22;45533;-86
2023/09/09 07:14:50;;;;;;;;;13.50;11.50;;;;;25.69;58.73;101068.13;4975258;28;45428;-86
2023/09/09 07:17:46;;;;;;;;;12.25;11.50;;;;;25.56;59.48;101049.25;4977987;28;46440;-86
2023/09/09 07:20:10;;;;;;;;;13.50;13.50;;;;;25.63;58.80;101060.50;4979975;28;45509;-84
2023/09/09 07:22:36;;;;;;;;;12.50;10.25;;;;;25.63;58.91;101063.22;4981868;28;45248;-86
2023/09/09 07:25:06;;;;;;;;;13.00;11.25;;;;;25.89;58.75;101110.94;4989179;28;45386;-82
2023/09/09 07:27:32;;;;;;;;;12.00;11.25;;;;;25.89;58.62;101100.00;4978607;28;45435;-81
2023/09/09 07:29:58;;;;;;;;;12.75;11.25;;;;;25.68;59.17;101064.53;4978711;28;46154;-82
2023/09/09 07:32:23;;;;;;;;;10.75;10.75;;;;;25.87;59.22;101087.44;4977930;28;46757;-81
2023/09/09 07:34:49;;;;;;;;;12.00;11.00;;;;;26.02;58.67;101121.63;4980665;28;55270;-81
2023/09/09 07:37:15;;;;;;;;;12.75;11.00;;;;;26.06;58.48;101116.72;4980491;28;45464;-81
2023/09/09 07:39:53;;;;;;;;;12.25;10.50;;;;;26.12;58.51;101124.38;4981868;28;45670;-82
2023/09/09 07:42:24;;;;;;;;;14.75;13.25;;;;;26.15;58.34;101126.81;4978821;28;45562;-83
2023/09/09 07:44:50;;;;;;;;;13.50;11.50;;;;;25.94;58.10;101085.00;4973084;28;45581;-82
2023/09/09 07:47:16;;;;;;;;;15.50;11.75;;;;;26.21;58.29;101131.75;4987088;28;46251;-85
2023/09/09 07:49:41;;;;;;;;;13.00;11.25;;;;;26.13;58.81;101109.69;4980244;28;45418;-84
2023/09/09 07:52:06;;;;;;;;;13.75;13.75;;;;;26.15;58.12;101104.94;4996126;28;52370;-84
2023/09/09 07:54:32;;;;;;;;;12.75;10.75;;;;;26.33;58.41;101131.59;4997464;28;45466;-85
2023/09/09 07:56:58;;;;;;;;;13.75;12.50;;;;;26.13;58.12;101097.88;4981476;28;45365;-82
2023/09/09 08:00:39;;;;;;;;;;;;;;;;;;;;;
2023/09/09 08:03:06;;;;;;;;;15.50;14.25;;;;;26.10;57.53;101058.00;4956764;28;67745;-82
2023/09/09 08:05:38;;;;;;;;;14.75;14.75;;;;;26.20;57.83;101079.91;4979444;28;45398;-82
2023/09/09 08:08:05;;;;;;;;;14.50;14.50;;;;;26.38;57.89;101110.13;4975272;28;46547;-82
2023/09/09 08:10:30;;;;;;;;;15.00;12.50;;;;;26.48;58.10;101111.00;4976201;28;45604;-82
2023/09/09 08:12:56;;;;;;;;;16.25;14.25;;;;;26.43;57.49;101095.00;4979886;28;45490;-82
2023/09/09 08:15:21;;;;;;;;;12.50;12.50;;;;;26.44;58.05;101102.19;4979914;28;45426;-82
2023/09/09 08:17:47;;;;;;;;;12.50;12.25;;;;;26.50;57.58;101106.25;4996828;28;45933;-83
2023/09/09 08:20:12;;;;;;;;;14.75;10.00;;;;;26.65;57.16;101112.19;4979074;28;45448;-82
2023/09/09 08:22:37;;;;;;;;;13.75;11.00;;;;;26.59;56.96;101101.78;4975818;28;45458;-83
2023/09/09 08:25:04;;;;;;;;;13.50;12.00;;;;;26.82;57.16;101134.38;4980205;28;45485;-83
2023/09/09 08:27:30;;;;;;;;;11.50;11.50;;;;;26.89;56.76;101147.31;4976752;28;47699;-80
2023/09/09 08:29:56;;;;;;;;;11.75;11.00;;;;;26.74;56.24;101107.69;4979430;28;45672;-83
2023/09/09 08:32:21;;;;;;;;;10.75;10.50;;;;;26.77;55.73;101105.53;4979886;28;45484;-82
2023/09/09 08:34:47;;;;;;;;;12.00;11.25;;;;;26.95;55.38;101127.56;4980958;28;45726;-83
2023/09/09 08:37:13;;;;;;;;;14.50;11.75;;;;;26.94;55.55;101114.84;4983078;28;46329;-82
2023/09/09 08:39:38;;;;;;;;;12.75;11.00;;;;;27.03;55.27;101106.75;4978812;28;48339;-82
2023/09/09 08:42:27;;;;;;;;;16.50;14.25;;;;;27.12;54.86;101120.44;4978446;28;45315;-83
2023/09/09 08:45:01;;;;;;;;;11.25;10.75;;;;;27.26;55.44;101135.53;4979679;28;46208;-83
2023/09/09 08:47:29;;;;;;;;;16.75;15.00;;;;;27.09;55.29;101100.69;4972577;28;46090;-83
2023/09/09 08:49:59;;;;;;;;;13.50;11.00;;;;;27.15;54.19;101094.63;4979482;28;45613;-82
2023/09/09 08:52:27;;;;;;;;;14.50;13.50;;;;;27.31;54.73;101111.31;4977272;28;45261;-83
2023/09/09 08:54:53;;;;;;;;;12.25;12.00;;;;;27.28;54.65;101097.91;4978287;28;45382;-83
2023/09/09 08:57:19;;;;;;;;;15.00;12.00;;;;;27.44;54.76;101119.22;4979280;28;45418;-83
2023/09/09 08:59:47;;;;;;;;;14.25;12.25;;;;;27.38;53.67;101099.75;4978093;28;45343;-84
2023/09/09 09:02:13;;;;;;;;;15.00;13.50;;;;;27.50;53.40;101110.38;4977508;28;45263;-83
2023/09/09 09:04:39;;;;;;;;;14.50;11.25;;;;;27.71;53.14;101132.06;4975507;28;46446;-82
2023/09/09 09:07:08;;;;;;;;;11.75;11.50;;;;;27.78;53.62;101139.69;4977930;28;45584;-84
2023/09/09 09:09:34;;;;;;;;;16.25;13.50;;;;;27.71;52.86;101115.59;4976331;28;45622;-85
2023/09/09 09:12:00;;;;;;;;;12.75;12.50;;;;;27.70;53.39;101102.06;4983082;28;45441;-86
2023/09/09 09:14:26;;;;;;;;;12.00;11.00;;;;;27.95;53.46;101135.28;4983968;28;45458;-84
2023/09/09 09:16:53;;;;;;;;;11.00;11.00;;;;;28.00;52.88;101133.81;4982302;28;45364;-86
2023/09/09 09:19:25;;;;;;;;;12.00;11.25;;;;;27.93;52.64;101116.22;4979340;28;45252;-83
2023/09/09 09:21:51;;;;;;;;;13.50;11.75;;;;;27.95;52.64;101113.34;4975295;28;45552;-84
2023/09/09 09:24:27;;;;;;;;;16.00;14.00;;;;;28.07;52.22;101118.47;4982048;28;45502;-84
2023/09/09 09:26:54;;;;;;;;;11.75;10.75;;;;;28.12;51.86;101114.38;4976910;28;45256;-83
2023/09/09 09:29:20;;;;;;;;;14.00;13.25;;;;;27.96;52.29;101087.66;4979426;28;45466;-88
2023/09/09 09:31:54;;;;;;;;;13.00;12.75;;;;;28.33;52.04;101136.91;4980677;28;45953;-87
2023/09/09 09:34:21;;;;;;;;;14.75;14.00;;;;;28.35;52.15;101118.41;4982101;28;46227;-86
2023/09/09 09:36:51;;;;;;;;;15.25;15.25;;;;;28.45;52.31;101127.44;5010123;22;48167;-69
